Plymouth, NH

3:45 AM EDT on August 18, 2017 (GMT -0400)
Plymouth

Weather History for K1P1 - August, 2014

Change the Weather History Date:

Tuesday, August 26, 2014

  Actual Average (KLCI) Record (KLCI)
Temperature  
Mean Temperature 68 °F -  
Max Temperature 84 °F 76 °F 89 °F (1992)
Min Temperature 53 °F 55 °F 46 °F (1987)
Cooling Degree Days 4    
Growing Degree Days 18 (Base 50)    
Moisture  
Dew Point 61 °F    
Average Humidity 84    
Maximum Humidity 100    
Minimum Humidity 52    
Precipitation  
Precipitation 0.00 in - - ()
Sea Level Pressure  
Sea Level Pressure 30.10 in    
Wind  
Wind Speed 1 mph (WSW)    
Max Wind Speed 9 mph    
Max Gust Speed 16 mph    
Visibility 6 miles    
Events Fog    
Averages and records for this station are not official NWS values.
T = Trace of Precipitation, MM = Missing Value Source: NWS Daily Summary

Daily Weather History Graph

Daily Weather History Graph

Search for Another Location

Airport or City:

Trip Planner

Search our weather history database for the weather conditions in past years. The results will help you decide how hot, cold, wet, or windy it might be!

Date:

Astronomy

Aug. 26, 2014 Rise Set
Actual Time 6:03 AM EDT 7:33 PM EDT
Civil Twilight 5:33 AM EDT 8:03 PM EDT
Nautical Twilight 4:57 AM EDT 8:39 PM EDT
Astronomical Twilight 4:18 AM EDT 9:17 PM EDT
Moon 7:04 AM EDT (8/26) 7:48 PM EDT (8/26)
Length of Visible Light 14h 29m
Length of Day
13h 29m
New Moon, 1% of the Moon is Illuminated
Aug 26
New Moon
Sep 2
First Quarter
Sep 8
Full
Sep 15
Last Quarter
Sep 24
New

Hourly Weather History & Observations

Time (EDT) Temp. Heat Index Dew Point Humidity Pressure Visibility Wind Dir Wind Speed Gust Speed Precip Events Conditions
12:15 AM 57.2 °F - 57.2 °F 100% 30.15 in 1.0 mi Calm Calm - N/A   Mist
12:35 AM 57.0 °F - 57.0 °F 100% 30.15 in 1.0 mi Calm Calm - N/A   Mist
12:55 AM 56.5 °F - 56.5 °F 100% 30.16 in 0.8 mi Calm Calm - N/A   Mist
1:15 AM 56.1 °F - 56.1 °F 100% 30.15 in 0.8 mi Calm Calm - N/A   Mist
1:35 AM 55.2 °F - 55.2 °F 100% 30.16 in 0.5 mi Calm Calm - N/A Fog Fog
1:55 AM 54.7 °F - 54.7 °F 100% 30.15 in 1.0 mi Calm Calm - N/A   Mist
2:15 AM 55.0 °F - 55.0 °F 100% 30.15 in 0.2 mi Calm Calm - N/A Fog Fog
2:35 AM 54.5 °F - 54.5 °F 100% 30.15 in 0.2 mi Calm Calm - N/A Fog Fog
2:55 AM 53.8 °F - 53.8 °F 100% 30.15 in 0.2 mi Calm Calm - N/A Fog Fog
3:15 AM 53.6 °F - 53.6 °F 100% 30.16 in 0.8 mi Calm Calm - N/A   Overcast
3:35 AM 53.4 °F - 53.4 °F 100% 30.16 in 0.5 mi Calm Calm - N/A Fog Fog
3:55 AM 53.6 °F - 53.6 °F 100% 30.15 in 0.2 mi Calm Calm - N/A Fog Fog
4:15 AM 53.4 °F - 53.4 °F 100% 30.16 in 0.2 mi Calm Calm - N/A Fog Fog
4:35 AM 53.8 °F - 53.8 °F 100% 30.16 in 0.2 mi Calm Calm - N/A Fog Fog
5:15 AM 53.6 °F - 53.6 °F 100% 30.15 in 0.8 mi Calm Calm - N/A   Overcast
5:35 AM 53.8 °F - 53.8 °F 100% 30.16 in 0.2 mi Calm Calm - N/A Fog Fog
5:55 AM 54.5 °F - 54.5 °F 100% 30.16 in 0.2 mi Calm Calm - N/A Fog Fog
6:15 AM 54.5 °F - 54.5 °F 100% 30.17 in 0.2 mi Calm Calm - N/A Fog Fog
6:35 AM 54.9 °F - 54.9 °F 100% 30.17 in 0.2 mi Calm Calm - N/A Fog Fog
6:55 AM 55.0 °F - 55.0 °F 100% 30.17 in 0.2 mi Calm Calm - N/A Fog Fog
7:15 AM 55.4 °F - 55.4 °F 100% 30.17 in 0.2 mi Calm Calm - N/A Fog Fog
7:35 AM 55.6 °F - 55.6 °F 100% 30.17 in 0.2 mi Calm Calm - N/A Fog Fog
8:15 AM 57.0 °F - 57.0 °F 100% 30.17 in 0.5 mi Calm Calm - N/A Fog Fog
8:35 AM 58.1 °F - 58.1 °F 100% 30.17 in 3.0 mi Calm Calm - N/A   Mostly Cloudy
8:55 AM 59.5 °F - 59.5 °F 100% 30.17 in 10.0 mi Calm Calm - N/A   Scattered Clouds
9:15 AM 61.2 °F - 61.2 °F 100% 30.17 in 10.0 mi Calm Calm - N/A   Clear
9:35 AM 63.0 °F - 63.0 °F 100% 30.16 in 10.0 mi Calm Calm - N/A   Clear
9:55 AM 65.1 °F - 65.1 °F 100% 30.16 in 10.0 mi Calm Calm - N/A   Clear
10:15 AM 69.8 °F - 68.9 °F 97% 30.16 in 10.0 mi Calm Calm - N/A   Clear
10:35 AM 72.5 °F - 66.9 °F 83% 30.15 in 10.0 mi Calm Calm - N/A   Clear
11:15 AM 77.4 °F - 67.8 °F 72% 30.14 in 10.0 mi Calm Calm - N/A   Clear
11:35 AM 77.9 °F - 67.8 °F 71% 30.14 in 10.0 mi Calm Calm - N/A   Clear
11:55 AM 79.9 °F - 67.3 °F 65% 30.12 in 10.0 mi Calm Calm - N/A   Clear
12:15 PM 81.0 °F 83.4 °F 67.5 °F 63% 30.12 in 10.0 mi Calm Calm - N/A   Scattered Clouds
12:35 PM 82.4 °F 83.9 °F 64.2 °F 54% 30.12 in 10.0 mi WSW 6.9 mph - N/A   Scattered Clouds
12:55 PM 82.6 °F 83.8 °F 63.3 °F 52% 30.12 in 10.0 mi SW 5.8 mph - N/A   Clear
1:15 PM 82.8 °F 84.5 °F 64.9 °F 55% 30.11 in 10.0 mi WSW 8.1 mph - N/A   Clear
1:35 PM 83.1 °F 84.8 °F 65.1 °F 54% 30.11 in 10.0 mi West 6.9 mph - N/A   Clear
1:55 PM 82.9 °F 84.6 °F 64.6 °F 54% 30.10 in 10.0 mi West 8.1 mph 16.1 mph N/A   Clear
2:15 PM 83.7 °F 85.1 °F 64.6 °F 52% 30.10 in 10.0 mi WSW 5.8 mph - N/A   Clear
2:35 PM 83.5 °F 84.9 °F 64.4 °F 52% 30.08 in 10.0 mi WSW 4.6 mph - N/A   Clear
2:55 PM 83.8 °F 86.0 °F 66.0 °F 55% 30.08 in 10.0 mi West 9.2 mph - N/A   Clear
3:15 PM 84.2 °F 86.1 °F 65.3 °F 53% 30.08 in 10.0 mi West 6.9 mph - N/A   Clear
3:35 PM 84.2 °F 86.6 °F 66.4 °F 55% 30.07 in 10.0 mi West 6.9 mph - N/A   Clear
3:55 PM 84.2 °F 86.3 °F 65.8 °F 54% 30.06 in 10.0 mi West 3.5 mph - N/A   Clear
4:15 PM 84.0 °F 86.3 °F 66.2 °F 55% 30.05 in 10.0 mi South 4.6 mph - N/A   Clear
4:35 PM 84.0 °F 86.0 °F 65.8 °F 54% 30.04 in 10.0 mi Calm Calm - N/A   Mostly Cloudy
4:55 PM 83.5 °F 86.0 °F 66.9 °F 57% 30.04 in 7.0 mi SSW 3.5 mph - N/A   Scattered Clouds
5:15 PM 83.3 °F 85.3 °F 65.7 °F 55% 30.04 in 10.0 mi WSW 6.9 mph - N/A   Clear
5:35 PM 83.3 °F 85.3 °F 65.7 °F 55% 30.03 in 10.0 mi Calm Calm - N/A   Clear
5:55 PM 82.6 °F 84.3 °F 64.8 °F 55% 30.03 in 10.0 mi SW 4.6 mph - N/A   Clear
6:15 PM 81.5 °F 83.1 °F 64.4 °F 56% 30.03 in 10.0 mi West 3.5 mph - N/A   Clear
6:35 PM 79.0 °F - 68.7 °F 71% 30.02 in 10.0 mi Calm Calm - N/A   Clear
6:55 PM 76.3 °F - 68.0 °F 75% 30.02 in 10.0 mi Calm Calm - N/A   Clear
7:15 PM 73.4 °F - 67.5 °F 82% 30.03 in 10.0 mi Calm Calm - N/A   Clear
7:35 PM 70.2 °F - 67.1 °F 90% 30.03 in 10.0 mi West 3.5 mph - N/A   Clear
7:55 PM 68.2 °F - 67.1 °F 96% 30.03 in 10.0 mi Calm Calm - N/A   Clear
8:15 PM 66.9 °F - 66.4 °F 98% 30.03 in 10.0 mi Calm Calm - N/A   Clear
8:35 PM 64.4 °F - 64.4 °F 100% 30.03 in 10.0 mi Calm Calm - N/A   Clear
8:55 PM 63.9 °F - 63.9 °F 100% 30.02 in 10.0 mi Calm Calm - N/A   Clear
9:15 PM 62.8 °F - 62.8 °F 100% 30.03 in 10.0 mi Calm Calm - N/A   Clear
9:35 PM 62.4 °F - 62.4 °F 100% 30.02 in 10.0 mi Calm Calm - N/A   Clear
9:55 PM 61.7 °F - 61.7 °F 100% 30.02 in 5.0 mi Calm Calm - N/A   Clear
10:15 PM 61.7 °F - 61.7 °F 100% 30.02 in 10.0 mi Calm Calm - N/A   Clear
10:55 PM 60.8 °F - 60.8 °F 100% 30.02 in 2.5 mi Calm Calm - N/A   Clear
11:15 PM 60.6 °F - 60.6 °F 100% 30.01 in 5.0 mi Calm Calm - N/A   Clear
11:35 PM 59.7 °F - 59.7 °F 100% 30.01 in 1.5 mi Calm Calm - N/A   Mist
11:55 PM 58.8 °F - 58.8 °F 100% 30.01 in 1.5 mi Calm Calm - N/A   Mist